sensor_id;sensor_type;location;lat;lon;timestamp;temperature;humidity
3564;DHT22;1796;52.388;13.096;2023-03-01T00:00:53;-3.90;99.90
3564;DHT22;1796;52.388;13.096;2023-03-01T00:03:20;-3.90;99.90
3564;DHT22;1796;52.388;13.096;2023-03-01T00:05:47;-4.00;99.90
3564;DHT22;1796;52.388;13.096;2023-03-01T00:08:14;-4.10;99.90
3564;DHT22;1796;52.388;13.096;2023-03-01T00:10:42;-4.00;99.90
3564;DHT22;1796;52.388;13.096;2023-03-01T00:13:09;-4.00;99.90
3564;DHT22;1796;52.388;13.096;2023-03-01T00:15:38;-4.10;99.90
3564;DHT22;1796;52.388;13.096;2023-03-01T00:18:07;-4.00;99.90
3564;DHT22;1796;52.388;13.096;2023-03-01T00:20:34;-4.10;99.90
3564;DHT22;1796;52.388;13.096;2023-03-01T00:23:00;-4.00;99.90
3564;DHT22;1796;52.388;13.096;2023-03-01T00:25:27;-4.00;99.90
3564;DHT22;1796;52.388;13.096;2023-03-01T00:27:55;-4.10;99.90
3564;DHT22;1796;52.388;13.096;2023-03-01T00:30:22;-4.20;99.90
3564;DHT22;1796;52.388;13.096;2023-03-01T00:32:49;-4.20;99.90
3564;DHT22;1796;52.388;13.096;2023-03-01T00:35:16;-4.20;99.90
3564;DHT22;1796;52.388;13.096;2023-03-01T00:37:43;-4.20;99.90
3564;DHT22;1796;52.388;13.096;2023-03-01T00:40:11;-4.20;99.90
3564;DHT22;1796;52.388;13.096;2023-03-01T00:42:37;-4.20;99.90
3564;DHT22;1796;52.388;13.096;2023-03-01T00:45:07;-4.20;99.90
3564;DHT22;1796;52.388;13.096;2023-03-01T00:47:34;-4.10;99.90
3564;DHT22;1796;52.388;13.096;2023-03-01T00:50:01;-4.10;99.90
3564;DHT22;1796;52.388;13.096;2023-03-01T00:52:28;-4.20;99.90
3564;DHT22;1796;52.388;13.096;2023-03-01T00:54:55;-4.10;99.90
3564;DHT22;1796;52.388;13.096;2023-03-01T00:57:23;-4.10;99.90
3564;DHT22;1796;52.388;13.096;2023-03-01T00:59:50;-4.10;99.90
3564;DHT22;1796;52.388;13.096;2023-03-01T01:02:19;-4.20;99.90
3564;DHT22;1796;52.388;13.096;2023-03-01T01:04:47;-4.30;99.90
3564;DHT22;1796;52.388;13.096;2023-03-01T01:07:14;-4.30;99.90
3564;DHT22;1796;52.388;13.096;2023-03-01T01:09:41;-4.40;99.90
3564;DHT22;1796;52.388;13.096;2023-03-01T01:12:08;-4.30;99.90
3564;DHT22;1796;52.388;13.096;2023-03-01T01:14:35;-4.30;99.90
3564;DHT22;1796;52.388;13.096;2023-03-01T01:17:02;-4.30;99.90
3564;DHT22;1796;52.388;13.096;2023-03-01T01:19:31;-4.40;99.90
3564;DHT22;1796;52.388;13.096;2023-03-01T01:21:58;-4.40;99.90
3564;DHT22;1796;52.388;13.096;2023-03-01T01:24:25;-4.40;99.90
3564;DHT22;1796;52.388;13.096;2023-03-01T01:26:52;-4.40;99.90
3564;DHT22;1796;52.388;13.096;2023-03-01T01:29:18;-4.30;99.90
3564;DHT22;1796;52.388;13.096;2023-03-01T01:31:45;-4.20;99.90
3564;DHT22;1796;52.388;13.096;2023-03-01T01:34:15;-4.30;99.90
3564;DHT22;1796;52.388;13.096;2023-03-01T01:36:47;-4.30;99.90
3564;DHT22;1796;52.388;13.096;2023-03-01T01:39:14;-4.20;99.90
3564;DHT22;1796;52.388;13.096;2023-03-01T01:41:41;-4.30;99.90
3564;DHT22;1796;52.388;13.096;2023-03-01T01:44:14;-4.30;99.90
3564;DHT22;1796;52.388;13.096;2023-03-01T01:46:43;-4.30;99.90
3564;DHT22;1796;52.388;13.096;2023-03-01T01:49:17;-4.40;99.90
3564;DHT22;1796;52.388;13.096;2023-03-01T01:51:49;-4.50;99.90
3564;DHT22;1796;52.388;13.096;2023-03-01T01:54:20;-4.50;99.90
3564;DHT22;1796;52.388;13.096;2023-03-01T01:56:51;-4.60;99.90
3564;DHT22;1796;52.388;13.096;2023-03-01T01:59:19;-4.70;99.90
3564;DHT22;1796;52.388;13.096;2023-03-01T02:01:50;-4.80;99.90
3564;DHT22;1796;52.388;13.096;2023-03-01T02:04:17;-4.90;99.90
3564;DHT22;1796;52.388;13.096;2023-03-01T02:06:51;-4.90;99.90
3564;DHT22;1796;52.388;13.096;2023-03-01T02:09:20;-5.00;99.90
3564;DHT22;1796;52.388;13.096;2023-03-01T02:11:49;-5.00;99.90
3564;DHT22;1796;52.388;13.096;2023-03-01T02:14:17;-5.00;99.90
3564;DHT22;1796;52.388;13.096;2023-03-01T02:16:44;-5.00;99.90
3564;DHT22;1796;52.388;13.096;2023-03-01T02:19:26;-4.90;99.90
3564;DHT22;1796;52.388;13.096;2023-03-01T02:22:02;-4.80;99.90
3564;DHT22;1796;52.388;13.096;2023-03-01T02:24:37;-4.90;99.90
3564;DHT22;1796;52.388;13.096;2023-03-01T02:27:07;-4.90;99.90
3564;DHT22;1796;52.388;13.096;2023-03-01T02:29:37;-4.90;99.90
3564;DHT22;1796;52.388;13.096;2023-03-01T02:32:05;-4.90;99.90
3564;DHT22;1796;52.388;13.096;2023-03-01T02:34:31;-4.90;99.90
3564;DHT22;1796;52.388;13.096;2023-03-01T02:37:01;-4.90;99.90
3564;DHT22;1796;52.388;13.096;2023-03-01T02:39:33;-5.00;99.90
3564;DHT22;1796;52.388;13.096;2023-03-01T02:42:02;-5.00;99.90
3564;DHT22;1796;52.388;13.096;2023-03-01T02:44:30;-5.00;99.90
3564;DHT22;1796;52.388;13.096;2023-03-01T02:47:01;-5.10;99.90
3564;DHT22;1796;52.388;13.096;2023-03-01T02:49:31;-5.10;99.90
3564;DHT22;1796;52.388;13.096;2023-03-01T02:55:09;-5.10;99.90
3564;DHT22;1796;52.388;13.096;2023-03-01T02:57:40;-5.10;99.90
3564;DHT22;1796;52.388;13.096;2023-03-01T03:00:10;-4.90;99.90
3564;DHT22;1796;52.388;13.096;2023-03-01T03:02:46;-5.00;99.90
3564;DHT22;1796;52.388;13.096;2023-03-01T03:05:16;-5.10;99.90
3564;DHT22;1796;52.388;13.096;2023-03-01T03:07:46;-5.20;99.90
3564;DHT22;1796;52.388;13.096;2023-03-01T03:10:14;-5.10;99.90
3564;DHT22;1796;52.388;13.096;2023-03-01T03:12:42;-5.10;99.90
3564;DHT22;1796;52.388;13.096;2023-03-01T03:15:10;-5.30;99.90
3564;DHT22;1796;52.388;13.096;2023-03-01T03:17:39;-5.40;99.90
3564;DHT22;1796;52.388;13.096;2023-03-01T03:20:10;-5.50;99.90
3564;DHT22;1796;52.388;13.096;2023-03-01T03:22:38;-5.50;99.90
3564;DHT22;1796;52.388;13.096;2023-03-01T03:25:06;-5.50;99.90
3564;DHT22;1796;52.388;13.096;2023-03-01T03:27:36;-5.50;99.90
3564;DHT22;1796;52.388;13.096;2023-03-01T03:30:04;-5.50;99.90
3564;DHT22;1796;52.388;13.096;2023-03-01T03:32:34;-5.50;99.90
3564;DHT22;1796;52.388;13.096;2023-03-01T03:35:02;-5.50;99.90
3564;DHT22;1796;52.388;13.096;2023-03-01T03:37:36;-5.50;99.90
3564;DHT22;1796;52.388;13.096;2023-03-01T03:40:34;-5.50;99.90
3564;DHT22;1796;52.388;13.096;2023-03-01T03:43:01;-5.60;99.90
3564;DHT22;1796;52.388;13.096;2023-03-01T03:45:28;-5.70;99.90
3564;DHT22;1796;52.388;13.096;2023-03-01T03:47:55;-5.70;99.90
3564;DHT22;1796;52.388;13.096;2023-03-01T03:50:22;-5.70;99.90
3564;DHT22;1796;52.388;13.096;2023-03-01T03:52:50;-5.80;99.90
3564;DHT22;1796;52.388;13.096;2023-03-01T03:55:17;-5.80;99.90
3564;DHT22;1796;52.388;13.096;2023-03-01T03:57:46;-5.80;99.90
3564;DHT22;1796;52.388;13.096;2023-03-01T04:00:18;-5.80;99.90
3564;DHT22;1796;52.388;13.096;2023-03-01T04:02:46;-5.80;99.90
3564;DHT22;1796;52.388;13.096;2023-03-01T04:05:15;-5.80;99.90
3564;DHT22;1796;52.388;13.096;2023-03-01T04:07:42;-5.80;99.90
3564;DHT22;1796;52.388;13.096;2023-03-01T04:10:13;-5.80;99.90
3564;DHT22;1796;52.388;13.096;2023-03-01T04:12:40;-5.90;99.90
3564;DHT22;1796;52.388;13.096;2023-03-01T04:15:10;-5.90;99.90
3564;DHT22;1796;52.388;13.096;2023-03-01T04:17:39;-5.90;99.90
3564;DHT22;1796;52.388;13.096;2023-03-01T04:20:08;-6.00;99.90
3564;DHT22;1796;52.388;13.096;2023-03-01T04:22:36;-6.00;99.90
3564;DHT22;1796;52.388;13.096;2023-03-01T04:25:04;-5.90;99.90
3564;DHT22;1796;52.388;13.096;2023-03-01T04:27:33;-5.90;99.90
3564;DHT22;1796;52.388;13.096;2023-03-01T04:30:00;-5.90;99.90
3564;DHT22;1796;52.388;13.096;2023-03-01T04:32:27;-5.90;99.90
3564;DHT22;1796;52.388;13.096;2023-03-01T04:34:54;-5.90;99.90
3564;DHT22;1796;52.388;13.096;2023-03-01T04:37:21;-5.90;99.90
3564;DHT22;1796;52.388;13.096;2023-03-01T04:39:49;-5.90;99.90
3564;DHT22;1796;52.388;13.096;2023-03-01T04:42:16;-5.80;99.90
3564;DHT22;1796;52.388;13.096;2023-03-01T04:44:44;-5.90;99.90
3564;DHT22;1796;52.388;13.096;2023-03-01T04:47:12;-5.70;99.90
3564;DHT22;1796;52.388;13.096;2023-03-01T04:49:38;-5.90;99.90
3564;DHT22;1796;52.388;13.096;2023-03-01T04:52:05;-6.00;99.90
3564;DHT22;1796;52.388;13.096;2023-03-01T04:54:33;-6.10;99.90
3564;DHT22;1796;52.388;13.096;2023-03-01T04:57:01;-6.10;99.90
3564;DHT22;1796;52.388;13.096;2023-03-01T04:59:28;-6.10;99.90
3564;DHT22;1796;52.388;13.096;2023-03-01T05:01:57;-6.10;99.90
3564;DHT22;1796;52.388;13.096;2023-03-01T05:04:26;-6.10;99.90
3564;DHT22;1796;52.388;13.096;2023-03-01T05:06:56;-6.20;99.90
3564;DHT22;1796;52.388;13.096;2023-03-01T05:09:24;-6.30;99.90
3564;DHT22;1796;52.388;13.096;2023-03-01T05:11:51;-6.30;99.90
3564;DHT22;1796;52.388;13.096;2023-03-01T05:14:17;-6.30;99.90
3564;DHT22;1796;52.388;13.096;2023-03-01T05:16:44;-6.20;99.90
3564;DHT22;1796;52.388;13.096;2023-03-01T05:19:12;-6.30;99.90
3564;DHT22;1796;52.388;13.096;2023-03-01T05:21:41;-6.30;99.90
3564;DHT22;1796;52.388;13.096;2023-03-01T05:24:21;-6.20;99.90
3564;DHT22;1796;52.388;13.096;2023-03-01T05:26:48;-6.10;99.90
3564;DHT22;1796;52.388;13.096;2023-03-01T05:29:17;-6.10;99.90
3564;DHT22;1796;52.388;13.096;2023-03-01T05:31:51;-6.10;99.90
3564;DHT22;1796;52.388;13.096;2023-03-01T05:34:23;-6.20;99.90
3564;DHT22;1796;52.388;13.096;2023-03-01T05:36:51;-6.30;99.90
3564;DHT22;1796;52.388;13.096;2023-03-01T05:39:19;-6.20;99.90
3564;DHT22;1796;52.388;13.096;2023-03-01T05:41:47;-6.10;99.90
3564;DHT22;1796;52.388;13.096;2023-03-01T05:44:15;-6.20;99.90
3564;DHT22;1796;52.388;13.096;2023-03-01T05:46:41;-6.20;99.90
3564;DHT22;1796;52.388;13.096;2023-03-01T05:49:08;-6.20;99.90
3564;DHT22;1796;52.388;13.096;2023-03-01T05:51:37;-6.20;99.90
3564;DHT22;1796;52.388;13.096;2023-03-01T05:54:04;-6.30;99.90
3564;DHT22;1796;52.388;13.096;2023-03-01T05:56:32;-6.30;99.90
3564;DHT22;1796;52.388;13.096;2023-03-01T05:59:00;-6.40;99.90
3564;DHT22;1796;52.388;13.096;2023-03-01T06:01:27;-6.40;99.90
3564;DHT22;1796;52.388;13.096;2023-03-01T06:03:55;-6.40;99.90
3564;DHT22;1796;52.388;13.096;2023-03-01T06:06:22;-6.20;99.90
3564;DHT22;1796;52.388;13.096;2023-03-01T06:08:51;-6.10;99.90
3564;DHT22;1796;52.388;13.096;2023-03-01T06:11:18;-6.00;99.90
3564;DHT22;1796;52.388;13.096;2023-03-01T06:13:45;-5.90;99.90
3564;DHT22;1796;52.388;13.096;2023-03-01T06:16:13;-6.00;99.90
3564;DHT22;1796;52.388;13.096;2023-03-01T06:18:41;-5.90;99.90
3564;DHT22;1796;52.388;13.096;2023-03-01T06:21:08;-5.70;99.90
3564;DHT22;1796;52.388;13.096;2023-03-01T06:23:35;-5.60;99.90
3564;DHT22;1796;52.388;13.096;2023-03-01T06:26:07;-5.30;99.90
3564;DHT22;1796;52.388;13.096;2023-03-01T06:28:35;-5.00;99.90
3564;DHT22;1796;52.388;13.096;2023-03-01T06:31:02;-4.80;99.90
3564;DHT22;1796;52.388;13.096;2023-03-01T06:33:29;-4.50;99.90
3564;DHT22;1796;52.388;13.096;2023-03-01T06:35:56;-4.40;99.90
3564;DHT22;1796;52.388;13.096;2023-03-01T06:38:23;-4.20;99.90
3564;DHT22;1796;52.388;13.096;2023-03-01T06:40:54;-4.20;99.90
3564;DHT22;1796;52.388;13.096;2023-03-01T06:43:23;-4.10;99.90
3564;DHT22;1796;52.388;13.096;2023-03-01T06:45:50;-4.10;99.90
3564;DHT22;1796;52.388;13.096;2023-03-01T06:48:17;-4.10;99.90
3564;DHT22;1796;52.388;13.096;2023-03-01T06:50:44;-3.50;99.90
3564;DHT22;1796;52.388;13.096;2023-03-01T06:53:11;-3.50;99.90
3564;DHT22;1796;52.388;13.096;2023-03-01T06:55:38;-3.00;99.90
3564;DHT22;1796;52.388;13.096;2023-03-01T06:58:04;-2.70;99.90
3564;DHT22;1796;52.388;13.096;2023-03-01T07:00:33;-2.30;99.90
3564;DHT22;1796;52.388;13.096;2023-03-01T07:03:00;-1.90;99.90
3564;DHT22;1796;52.388;13.096;2023-03-01T07:05:28;-1.70;99.90
3564;DHT22;1796;52.388;13.096;2023-03-01T07:07:55;-1.60;99.90
3564;DHT22;1796;52.388;13.096;2023-03-01T07:10:22;-1.50;99.90
3564;DHT22;1796;52.388;13.096;2023-03-01T07:12:49;-1.40;99.90
3564;DHT22;1796;52.388;13.096;2023-03-01T07:15:16;-1.40;99.90
3564;DHT22;1796;52.388;13.096;2023-03-01T07:17:44;-1.50;99.90
3564;DHT22;1796;52.388;13.096;2023-03-01T07:20:13;-1.70;99.90
3564;DHT22;1796;52.388;13.096;2023-03-01T07:22:40;-1.70;99.90
3564;DHT22;1796;52.388;13.096;2023-03-01T07:25:08;-1.70;99.90
3564;DHT22;1796;52.388;13.096;2023-03-01T07:27:36;-1.80;99.90
3564;DHT22;1796;52.388;13.096;2023-03-01T07:30:04;-1.80;99.90
3564;DHT22;1796;52.388;13.096;2023-03-01T07:32:31;-1.90;99.90
3564;DHT22;1796;52.388;13.096;2023-03-01T07:34:59;-1.90;99.90
3564;DHT22;1796;52.388;13.096;2023-03-01T07:37:26;-1.90;99.90
3564;DHT22;1796;52.388;13.096;2023-03-01T07:39:53;-1.90;99.90
3564;DHT22;1796;52.388;13.096;2023-03-01T07:42:19;-2.00;99.90
3564;DHT22;1796;52.388;13.096;2023-03-01T07:44:46;-2.00;99.90
3564;DHT22;1796;52.388;13.096;2023-03-01T07:47:13;-2.00;99.90
3564;DHT22;1796;52.388;13.096;2023-03-01T07:49:40;-2.00;99.90
3564;DHT22;1796;52.388;13.096;2023-03-01T07:52:09;-1.90;99.90
3564;DHT22;1796;52.388;13.096;2023-03-01T07:54:37;-1.90;99.90
3564;DHT22;1796;52.388;13.096;2023-03-01T07:57:04;-1.90;99.90
3564;DHT22;1796;52.388;13.096;2023-03-01T07:59:31;-1.90;99.90
3564;DHT22;1796;52.388;13.096;2023-03-01T08:01:58;-1.70;99.90
3564;DHT22;1796;52.388;13.096;2023-03-01T08:04:25;-1.60;99.90
3564;DHT22;1796;52.388;13.096;2023-03-01T08:06:52;-1.50;99.90
3564;DHT22;1796;52.388;13.096;2023-03-01T08:09:21;-1.50;99.90
3564;DHT22;1796;52.388;13.096;2023-03-01T08:11:48;-1.50;99.90
3564;DHT22;1796;52.388;13.096;2023-03-01T08:14:15;-1.40;99.90
3564;DHT22;1796;52.388;13.096;2023-03-01T08:16:42;-1.30;99.90
3564;DHT22;1796;52.388;13.096;2023-03-01T08:19:11;-1.20;99.90
3564;DHT22;1796;52.388;13.096;2023-03-01T08:21:38;-1.20;99.90
3564;DHT22;1796;52.388;13.096;2023-03-01T08:24:06;-1.10;99.90
3564;DHT22;1796;52.388;13.096;2023-03-01T08:26:37;-1.00;99.90
3564;DHT22;1796;52.388;13.096;2023-03-01T08:29:03;-0.90;99.90
3564;DHT22;1796;52.388;13.096;2023-03-01T08:31:32;-0.80;99.90
3564;DHT22;1796;52.388;13.096;2023-03-01T08:34:02;-0.70;99.90
3564;DHT22;1796;52.388;13.096;2023-03-01T08:36:30;-0.50;99.90
3564;DHT22;1796;52.388;13.096;2023-03-01T08:38:58;-0.40;99.90
3564;DHT22;1796;52.388;13.096;2023-03-01T08:41:25;-0.40;99.90
3564;DHT22;1796;52.388;13.096;2023-03-01T08:43:54;-0.30;99.90
3564;DHT22;1796;52.388;13.096;2023-03-01T08:46:24;-0.20;99.90
3564;DHT22;1796;52.388;13.096;2023-03-01T08:48:51;0.00;99.90
3564;DHT22;1796;52.388;13.096;2023-03-01T08:51:19;0.10;99.90
3564;DHT22;1796;52.388;13.096;2023-03-01T08:53:47;0.20;99.90
3564;DHT22;1796;52.388;13.096;2023-03-01T08:56:14;0.30;99.90
3564;DHT22;1796;52.388;13.096;2023-03-01T08:58:43;0.40;99.90
3564;DHT22;1796;52.388;13.096;2023-03-01T09:01:14;0.50;99.90
3564;DHT22;1796;52.388;13.096;2023-03-01T09:03:41;0.60;99.90
3564;DHT22;1796;52.388;13.096;2023-03-01T09:06:08;0.80;99.90
3564;DHT22;1796;52.388;13.096;2023-03-01T09:08:36;1.00;99.90
3564;DHT22;1796;52.388;13.096;2023-03-01T09:11:03;1.10;99.90
3564;DHT22;1796;52.388;13.096;2023-03-01T09:13:30;1.10;99.90
3564;DHT22;1796;52.388;13.096;2023-03-01T09:15:57;1.10;99.90
3564;DHT22;1796;52.388;13.096;2023-03-01T09:18:26;1.30;99.90
3564;DHT22;1796;52.388;13.096;2023-03-01T09:20:52;1.50;99.90
3564;DHT22;1796;52.388;13.096;2023-03-01T09:23:21;1.40;99.90
3564;DHT22;1796;52.388;13.096;2023-03-01T09:25:48;1.30;99.90
3564;DHT22;1796;52.388;13.096;2023-03-01T09:28:15;1.40;99.90
3564;DHT22;1796;52.388;13.096;2023-03-01T09:30:42;1.50;99.90
3564;DHT22;1796;52.388;13.096;2023-03-01T09:33:08;1.60;99.90
3564;DHT22;1796;52.388;13.096;2023-03-01T09:35:41;1.50;99.90
3564;DHT22;1796;52.388;13.096;2023-03-01T09:38:13;1.50;99.90
3564;DHT22;1796;52.388;13.096;2023-03-01T09:40:43;1.60;99.90
3564;DHT22;1796;52.388;13.096;2023-03-01T09:43:20;1.70;99.90
3564;DHT22;1796;52.388;13.096;2023-03-01T09:45:49;1.80;99.90
3564;DHT22;1796;52.388;13.096;2023-03-01T09:48:20;1.90;99.90
3564;DHT22;1796;52.388;13.096;2023-03-01T09:50:50;2.00;99.90
3564;DHT22;1796;52.388;13.096;2023-03-01T09:53:20;2.10;99.90
3564;DHT22;1796;52.388;13.096;2023-03-01T09:55:53;2.20;99.90
3564;DHT22;1796;52.388;13.096;2023-03-01T09:58:34;2.10;99.90
3564;DHT22;1796;52.388;13.096;2023-03-01T10:01:16;2.20;99.90
3564;DHT22;1796;52.388;13.096;2023-03-01T10:03:59;2.50;99.90
3564;DHT22;1796;52.388;13.096;2023-03-01T10:06:28;2.50;99.90
3564;DHT22;1796;52.388;13.096;2023-03-01T10:08:57;2.40;99.90
3564;DHT22;1796;52.388;13.096;2023-03-01T10:11:28;2.40;99.90
3564;DHT22;1796;52.388;13.096;2023-03-01T10:14:01;2.60;99.90
3564;DHT22;1796;52.388;13.096;2023-03-01T10:16:38;2.70;99.90
3564;DHT22;1796;52.388;13.096;2023-03-01T10:19:11;2.50;99.90
3564;DHT22;1796;52.388;13.096;2023-03-01T10:21:44;2.60;99.90
3564;DHT22;1796;52.388;13.096;2023-03-01T10:24:14;2.60;99.90
3564;DHT22;1796;52.388;13.096;2023-03-01T10:26:48;2.70;99.90
3564;DHT22;1796;52.388;13.096;2023-03-01T10:29:15;2.80;99.90
3564;DHT22;1796;52.388;13.096;2023-03-01T10:31:44;3.00;99.90
3564;DHT22;1796;52.388;13.096;2023-03-01T10:34:15;3.10;99.90
3564;DHT22;1796;52.388;13.096;2023-03-01T10:36:47;3.10;99.90
3564;DHT22;1796;52.388;13.096;2023-03-01T10:39:17;3.00;99.90
3564;DHT22;1796;52.388;13.096;2023-03-01T10:42:01;3.10;99.90
3564;DHT22;1796;52.388;13.096;2023-03-01T10:44:39;3.20;99.90
3564;DHT22;1796;52.388;13.096;2023-03-01T10:47:17;3.20;99.90
3564;DHT22;1796;52.388;13.096;2023-03-01T10:49:53;3.00;99.90
3564;DHT22;1796;52.388;13.096;2023-03-01T10:52:24;3.00;99.90
3564;DHT22;1796;52.388;13.096;2023-03-01T10:54:54;3.20;99.90
3564;DHT22;1796;52.388;13.096;2023-03-01T10:57:34;3.20;99.90
3564;DHT22;1796;52.388;13.096;2023-03-01T11:00:24;3.30;99.90
3564;DHT22;1796;52.388;13.096;2023-03-01T11:03:04;3.30;99.90
3564;DHT22;1796;52.388;13.096;2023-03-01T11:05:36;3.30;99.90
3564;DHT22;1796;52.388;13.096;2023-03-01T11:08:04;3.30;99.90
3564;DHT22;1796;52.388;13.096;2023-03-01T11:10:33;3.40;99.90
3564;DHT22;1796;52.388;13.096;2023-03-01T11:13:07;3.80;99.90
3564;DHT22;1796;52.388;13.096;2023-03-01T11:15:35;4.00;99.90
3564;DHT22;1796;52.388;13.096;2023-03-01T11:18:02;3.90;99.90
3564;DHT22;1796;52.388;13.096;2023-03-01T11:20:32;4.00;99.90
3564;DHT22;1796;52.388;13.096;2023-03-01T11:23:02;3.80;99.90
3564;DHT22;1796;52.388;13.096;2023-03-01T11:25:35;3.90;99.90
3564;DHT22;1796;52.388;13.096;2023-03-01T11:28:05;4.00;99.90
3564;DHT22;1796;52.388;13.096;2023-03-01T11:30:35;3.90;99.90
3564;DHT22;1796;52.388;13.096;2023-03-01T11:33:15;3.90;99.90
3564;DHT22;1796;52.388;13.096;2023-03-01T11:35:47;4.00;99.90
3564;DHT22;1796;52.388;13.096;2023-03-01T11:38:20;3.90;99.90
3564;DHT22;1796;52.388;13.096;2023-03-01T11:40:52;4.30;99.90
3564;DHT22;1796;52.388;13.096;2023-03-01T11:43:31;4.30;99.90
3564;DHT22;1796;52.388;13.096;2023-03-01T11:49:22;4.20;99.90
3564;DHT22;1796;52.388;13.096;2023-03-01T11:51:55;4.20;99.90
3564;DHT22;1796;52.388;13.096;2023-03-01T11:54:35;4.20;99.90
3564;DHT22;1796;52.388;13.096;2023-03-01T11:57:15;4.30;99.90
3564;DHT22;1796;52.388;13.096;2023-03-01T12:00:05;4.30;99.90
3564;DHT22;1796;52.388;13.096;2023-03-01T12:03:09;4.60;99.90
3564;DHT22;1796;52.388;13.096;2023-03-01T12:05:58;5.00;99.90
3564;DHT22;1796;52.388;13.096;2023-03-01T12:08:35;4.70;99.90
3564;DHT22;1796;52.388;13.096;2023-03-01T12:11:10;4.50;99.90
3564;DHT22;1796;52.388;13.096;2023-03-01T12:14:11;4.50;99.90
3564;DHT22;1796;52.388;13.096;2023-03-01T12:17:07;4.60;99.90
3564;DHT22;1796;52.388;13.096;2023-03-01T12:19:51;4.70;99.90
3564;DHT22;1796;52.388;13.096;2023-03-01T12:22:29;4.50;99.90
3564;DHT22;1796;52.388;13.096;2023-03-01T12:25:21;4.60;99.90
3564;DHT22;1796;52.388;13.096;2023-03-01T12:28:10;4.80;99.90
3564;DHT22;1796;52.388;13.096;2023-03-01T12:30:51;4.90;99.90
3564;DHT22;1796;52.388;13.096;2023-03-01T12:33:29;5.00;99.90
3564;DHT22;1796;52.388;13.096;2023-03-01T12:36:22;5.00;99.90
3564;DHT22;1796;52.388;13.096;2023-03-01T12:39:03;5.00;99.90
3564;DHT22;1796;52.388;13.096;2023-03-01T12:41:43;5.00;99.90
3564;DHT22;1796;52.388;13.096;2023-03-01T12:44:19;5.20;99.90
3564;DHT22;1796;52.388;13.096;2023-03-01T12:47:03;5.30;99.90
3564;DHT22;1796;52.388;13.096;2023-03-01T12:49:37;5.40;99.90
3564;DHT22;1796;52.388;13.096;2023-03-01T12:52:11;5.40;99.90
3564;DHT22;1796;52.388;13.096;2023-03-01T12:54:38;5.20;99.90
3564;DHT22;1796;52.388;13.096;2023-03-01T12:57:11;5.50;99.90
3564;DHT22;1796;52.388;13.096;2023-03-01T12:59:42;5.50;99.90
3564;DHT22;1796;52.388;13.096;2023-03-01T13:02:20;5.40;99.90
3564;DHT22;1796;52.388;13.096;2023-03-01T13:04:58;5.40;99.90
3564;DHT22;1796;52.388;13.096;2023-03-01T13:07:32;5.40;99.90
3564;DHT22;1796;52.388;13.096;2023-03-01T13:10:15;5.40;99.90
3564;DHT22;1796;52.388;13.096;2023-03-01T13:13:02;5.20;99.90
3564;DHT22;1796;52.388;13.096;2023-03-01T13:15:33;5.20;99.90
3564;DHT22;1796;52.388;13.096;2023-03-01T13:18:04;5.50;99.90
3564;DHT22;1796;52.388;13.096;2023-03-01T13:20:34;5.40;99.90
3564;DHT22;1796;52.388;13.096;2023-03-01T13:23:23;5.50;99.90
3564;DHT22;1796;52.388;13.096;2023-03-01T13:26:12;5.40;99.90
3564;DHT22;1796;52.388;13.096;2023-03-01T13:28:48;5.40;99.90
3564;DHT22;1796;52.388;13.096;2023-03-01T13:34:52;5.60;99.90
3564;DHT22;1796;52.388;13.096;2023-03-01T13:37:21;5.50;99.90
3564;DHT22;1796;52.388;13.096;2023-03-01T13:39:48;5.50;99.90
3564;DHT22;1796;52.388;13.096;2023-03-01T13:42:35;5.40;99.90
3564;DHT22;1796;52.388;13.096;2023-03-01T13:45:04;5.50;99.90
3564;DHT22;1796;52.388;13.096;2023-03-01T13:47:34;5.50;99.90
3564;DHT22;1796;52.388;13.096;2023-03-01T13:50:04;5.60;99.90
3564;DHT22;1796;52.388;13.096;2023-03-01T13:52:37;5.60;99.90
3564;DHT22;1796;52.388;13.096;2023-03-01T13:55:16;5.90;99.90
3564;DHT22;1796;52.388;13.096;2023-03-01T13:57:46;5.90;99.90
3564;DHT22;1796;52.388;13.096;2023-03-01T14:00:28;5.80;99.90
3564;DHT22;1796;52.388;13.096;2023-03-01T14:03:17;5.80;99.90
3564;DHT22;1796;52.388;13.096;2023-03-01T14:06:02;5.90;99.90
3564;DHT22;1796;52.388;13.096;2023-03-01T14:08:32;5.80;99.90
3564;DHT22;1796;52.388;13.096;2023-03-01T14:11:33;5.70;99.90
3564;DHT22;1796;52.388;13.096;2023-03-01T14:14:29;5.80;99.90
3564;DHT22;1796;52.388;13.096;2023-03-01T14:17:07;5.90;99.90
3564;DHT22;1796;52.388;13.096;2023-03-01T14:19:36;6.00;99.90
3564;DHT22;1796;52.388;13.096;2023-03-01T14:22:15;5.90;99.90
3564;DHT22;1796;52.388;13.096;2023-03-01T14:24:47;5.90;99.90
3564;DHT22;1796;52.388;13.096;2023-03-01T14:27:16;5.60;99.90
3564;DHT22;1796;52.388;13.096;2023-03-01T14:29:43;5.80;99.90
3564;DHT22;1796;52.388;13.096;2023-03-01T14:32:12;5.80;99.90
3564;DHT22;1796;52.388;13.096;2023-03-01T14:34:46;5.80;99.90
3564;DHT22;1796;52.388;13.096;2023-03-01T14:37:21;5.60;99.90
3564;DHT22;1796;52.388;13.096;2023-03-01T14:39:48;5.50;99.90
3564;DHT22;1796;52.388;13.096;2023-03-01T14:42:16;5.50;99.90
3564;DHT22;1796;52.388;13.096;2023-03-01T14:44:46;5.60;99.90
3564;DHT22;1796;52.388;13.096;2023-03-01T14:47:16;5.80;99.90
3564;DHT22;1796;52.388;13.096;2023-03-01T14:49:47;5.80;99.90
3564;DHT22;1796;52.388;13.096;2023-03-01T14:52:22;6.00;99.90
3564;DHT22;1796;52.388;13.096;2023-03-01T14:54:52;6.00;99.90
3564;DHT22;1796;52.388;13.096;2023-03-01T14:57:22;6.10;99.90
3564;DHT22;1796;52.388;13.096;2023-03-01T14:59:50;6.20;99.90
3564;DHT22;1796;52.388;13.096;2023-03-01T15:02:20;6.00;99.90
3564;DHT22;1796;52.388;13.096;2023-03-01T15:04:51;6.10;99.90
3564;DHT22;1796;52.388;13.096;2023-03-01T15:07:29;6.20;99.90
3564;DHT22;1796;52.388;13.096;2023-03-01T15:09:57;6.10;99.90
3564;DHT22;1796;52.388;13.096;2023-03-01T15:12:41;6.10;99.90
3564;DHT22;1796;52.388;13.096;2023-03-01T15:18:17;5.70;99.90
3564;DHT22;1796;52.388;13.096;2023-03-01T15:20:44;5.70;99.90
3564;DHT22;1796;52.388;13.096;2023-03-01T15:23:20;5.80;99.90
3564;DHT22;1796;52.388;13.096;2023-03-01T15:25:49;6.00;99.90
3564;DHT22;1796;52.388;13.096;2023-03-01T15:28:23;6.10;99.90
3564;DHT22;1796;52.388;13.096;2023-03-01T15:30:56;5.90;99.90
3564;DHT22;1796;52.388;13.096;2023-03-01T15:33:33;5.80;99.90
3564;DHT22;1796;52.388;13.096;2023-03-01T15:36:03;6.20;99.90
3564;DHT22;1796;52.388;13.096;2023-03-01T15:38:36;6.10;99.90
3564;DHT22;1796;52.388;13.096;2023-03-01T15:41:22;6.00;99.90
3564;DHT22;1796;52.388;13.096;2023-03-01T15:43:49;5.90;99.90
3564;DHT22;1796;52.388;13.096;2023-03-01T15:46:22;5.90;99.90
3564;DHT22;1796;52.388;13.096;2023-03-01T15:48:52;6.10;99.90
3564;DHT22;1796;52.388;13.096;2023-03-01T15:51:32;6.00;99.90
3564;DHT22;1796;52.388;13.096;2023-03-01T15:54:04;5.90;99.90
3564;DHT22;1796;52.388;13.096;2023-03-01T15:56:31;5.70;99.90
3564;DHT22;1796;52.388;13.096;2023-03-01T15:59:00;6.00;99.90
3564;DHT22;1796;52.388;13.096;2023-03-01T16:01:28;5.70;99.90
3564;DHT22;1796;52.388;13.096;2023-03-01T16:03:55;5.60;99.90
3564;DHT22;1796;52.388;13.096;2023-03-01T16:06:24;5.60;99.90
3564;DHT22;1796;52.388;13.096;2023-03-01T16:08:50;5.80;99.90
3564;DHT22;1796;52.388;13.096;2023-03-01T16:11:19;5.70;99.90
3564;DHT22;1796;52.388;13.096;2023-03-01T16:13:46;5.70;99.90
3564;DHT22;1796;52.388;13.096;2023-03-01T16:16:15;5.50;99.90
3564;DHT22;1796;52.388;13.096;2023-03-01T16:18:44;5.50;99.90
3564;DHT22;1796;52.388;13.096;2023-03-01T16:21:13;5.80;99.90
3564;DHT22;1796;52.388;13.096;2023-03-01T16:23:42;5.60;99.90
3564;DHT22;1796;52.388;13.096;2023-03-01T16:26:19;5.60;99.90
3564;DHT22;1796;52.388;13.096;2023-03-01T16:28:46;5.70;99.90